Terminal Aerodrome Forecast
Issued by NWS

Home | Current Version | Previous Version | Text Only | Print | Product List | Glossary On
Versions: 1 2 3 4 5 6 7 8 9 10 11 12 13 14 15 16 17
000
FTUS45 KABQ 140500
TAFTCC
TAF
KTCC 140526Z 1406/1506 VRB04KT P6SM BKN100
     FM141800 22008KT P6SM VCSH BKN090
      TEMPO 1420/1424 5SM -TSRA OVC050CB
     FM150400 06012KT P6SM VCSH OVC060=

USA.gov is the U.S. government's official web portal to all federal, state and local government web resources and services.